ジッダ の空港の天気 - METARとTAF

キング・アブドゥルアズィーズ国際空港(ジッダ) ( OEJN / JED ) - サウジアラビア ジッダ
飛行場実況気象(Metar)
観測時間06/23 04:00 AST (06/23 01:00 UTC)
風向・風速北北西 4m/s
視程10km以上
天気現象
全天の4割程度の雲 雲底高度 1220m
気温31℃
湿度66%
気圧1002hPa
METAROEJN 230100Z 34007KT 9999 SCT040 31/24 Q1002 NOSIG
過去の天気等 Google飛行場航空写真 Wunderground天気予報

過去48時間のMETAR

飛行場予報(TAF)
発表時間: 6/23 02:00 AST (6/22 23:00 UTC)
予報対象時間: 23日3時 AST ~ 24日9時 AST
風向・風速北西 3m/s 瞬間風速 8m/s
視程10km以上
少しの雲 雲底高度 1,220m
TAF COR OEJN 222300Z 2300/2406 32006G16KT 9999 FEW040